createdAt,value
2023-04-26T00:00:43.882Z,4.00
2023-04-26T00:03:10.738Z,3.55
2023-04-26T00:05:38.139Z,3.80
2023-04-26T00:08:05.021Z,3.72
2023-04-26T00:10:31.844Z,3.55
2023-04-26T00:13:04.369Z,3.55
2023-04-26T00:15:31.145Z,3.50
2023-04-26T00:17:57.603Z,3.55
2023-04-26T00:20:27.348Z,3.65
2023-04-26T00:22:56.671Z,3.65
2023-04-26T00:25:23.375Z,3.28
2023-04-26T00:27:49.979Z,3.53
2023-04-26T00:30:16.579Z,2.80
2023-04-26T00:32:43.475Z,2.92
2023-04-26T00:35:10.604Z,3.25
2023-04-26T00:37:37.379Z,3.00
2023-04-26T00:40:08.365Z,3.00
2023-04-26T00:42:35.147Z,3.20
2023-04-26T00:45:02.758Z,2.58
2023-04-26T00:47:29.882Z,3.05
2023-04-26T00:49:59.158Z,2.95
2023-04-26T00:52:26.426Z,2.72
2023-04-26T00:54:53.955Z,2.78
2023-04-26T00:57:21.491Z,2.58
2023-04-26T00:59:48.782Z,2.60
2023-04-26T01:02:17.654Z,2.72
2023-04-26T01:04:45.690Z,2.40
2023-04-26T01:07:15.305Z,2.70
2023-04-26T01:09:43.023Z,2.63
2023-04-26T01:12:10.261Z,2.47
2023-04-26T01:14:38.421Z,2.70
2023-04-26T01:17:06.122Z,2.70
2023-04-26T01:19:32.986Z,2.90
2023-04-26T01:22:11.635Z,2.70
2023-04-26T01:24:51.727Z,2.60
2023-04-26T01:27:20.853Z,2.92
2023-04-26T01:29:47.612Z,2.28
2023-04-26T01:32:14.352Z,2.63
2023-04-26T01:34:40.839Z,2.70
2023-04-26T01:37:08.575Z,2.72
2023-04-26T01:39:36.565Z,3.10
2023-04-26T01:42:04.842Z,2.40
2023-04-26T01:44:31.970Z,2.63
2023-04-26T01:47:01.091Z,2.97
2023-04-26T01:49:27.585Z,2.70
2023-04-26T01:51:54.865Z,2.45
2023-04-26T01:54:21.251Z,2.80
2023-04-26T01:56:50.029Z,2.88
2023-04-26T01:59:16.660Z,2.53
2023-04-26T02:01:47.355Z,2.83
2023-04-26T02:04:14.114Z,2.60
2023-04-26T02:06:42.378Z,2.38
2023-04-26T02:09:17.822Z,2.53
2023-04-26T02:14:11.030Z,2.60
2023-04-26T02:16:42.042Z,2.40
2023-04-26T02:19:10.941Z,2.70
2023-04-26T02:21:50.428Z,2.58
2023-04-26T02:24:31.005Z,2.78
2023-04-26T02:27:03.748Z,2.42
2023-04-26T02:29:43.517Z,2.80
2023-04-26T02:32:10.995Z,2.60
2023-04-26T02:34:40.604Z,2.80
2023-04-26T02:37:07.537Z,2.38
2023-04-26T02:39:37.148Z,3.20
2023-04-26T02:42:06.304Z,2.42
2023-04-26T02:44:32.908Z,2.40
2023-04-26T02:46:59.497Z,2.55
2023-04-26T02:49:26.082Z,2.38
2023-04-26T02:51:52.993Z,3.28
2023-04-26T02:54:22.828Z,2.75
2023-04-26T02:56:49.621Z,2.45
2023-04-26T02:59:16.294Z,2.40
2023-04-26T03:01:43.163Z,2.53
2023-04-26T03:04:10.525Z,2.47
2023-04-26T03:06:37.708Z,2.60
2023-04-26T03:09:05.723Z,2.58
2023-04-26T03:11:32.974Z,2.78
2023-04-26T03:13:59.666Z,2.00
2023-04-26T03:16:28.235Z,2.58
2023-04-26T03:18:55.524Z,2.33
2023-04-26T03:21:22.127Z,2.75
2023-04-26T03:23:48.816Z,2.47
2023-04-26T03:26:15.322Z,2.47
2023-04-26T03:28:42.464Z,2.75
2023-04-26T03:31:09.347Z,2.63
2023-04-26T03:33:36.044Z,2.60
2023-04-26T03:36:02.660Z,2.72
2023-04-26T03:38:29.491Z,2.70
2023-04-26T03:40:57.044Z,2.55
2023-04-26T03:43:24.131Z,3.05
2023-04-26T03:45:51.427Z,3.25
2023-04-26T03:48:18.091Z,3.67
2023-04-26T03:50:45.554Z,2.97
2023-04-26T03:53:12.384Z,2.60
2023-04-26T03:55:38.876Z,2.65
2023-04-26T03:58:07.946Z,3.05
2023-04-26T04:00:38.269Z,2.95
2023-04-26T04:03:05.597Z,3.35
2023-04-26T04:05:32.892Z,3.08
2023-04-26T04:07:59.941Z,3.17
2023-04-26T04:10:27.926Z,3.83
2023-04-26T04:12:55.966Z,3.75
2023-04-26T04:15:23.130Z,3.50
2023-04-26T04:17:49.920Z,4.07
2023-04-26T04:20:17.749Z,4.20
2023-04-26T04:22:46.196Z,4.07
2023-04-26T04:25:13.844Z,3.67
2023-04-26T04:27:43.214Z,4.40
2023-04-26T04:30:10.699Z,4.05
2023-04-26T04:32:40.382Z,4.18
2023-04-26T04:35:08.059Z,4.60
2023-04-26T04:37:35.078Z,4.32
2023-04-26T04:40:03.196Z,4.47
2023-04-26T04:42:32.371Z,3.85
2023-04-26T04:45:02.962Z,4.57
2023-04-26T04:47:30.334Z,4.35
2023-04-26T04:49:57.079Z,4.13
2023-04-26T04:52:24.231Z,3.97
2023-04-26T04:54:51.217Z,4.30
2023-04-26T04:57:18.951Z,4.40
2023-04-26T04:59:47.823Z,4.28
2023-04-26T05:02:14.443Z,4.50
2023-04-26T05:04:42.657Z,5.10
2023-04-26T05:07:09.564Z,4.38
2023-04-26T05:09:39.390Z,4.35
2023-04-26T05:12:07.271Z,3.78
2023-04-26T05:14:34.533Z,4.03
2023-04-26T05:17:03.566Z,3.92
2023-04-26T05:19:31.991Z,4.05
2023-04-26T05:22:02.679Z,3.75
2023-04-26T05:24:31.737Z,3.80
2023-04-26T05:26:59.309Z,3.88
2023-04-26T05:29:41.610Z,3.40
2023-04-26T05:32:38.790Z,3.25
2023-04-26T05:35:25.836Z,2.92
2023-04-26T05:37:52.818Z,3.88
2023-04-26T05:40:21.798Z,3.42
2023-04-26T05:42:48.336Z,3.38
2023-04-26T05:45:16.556Z,3.10
2023-04-26T05:47:43.269Z,3.50
2023-04-26T05:50:11.072Z,3.28
2023-04-26T05:52:38.569Z,2.95
2023-04-26T05:55:06.928Z,2.90
2023-04-26T05:57:34.568Z,3.47
2023-04-26T06:00:05.480Z,2.88
2023-04-26T06:02:40.837Z,2.78
2023-04-26T06:05:15.433Z,3.45
2023-04-26T06:07:44.254Z,2.60
2023-04-26T06:10:11.958Z,2.75
2023-04-26T06:12:39.960Z,2.78
2023-04-26T06:15:07.243Z,3.20
2023-04-26T06:17:36.965Z,2.85
2023-04-26T06:20:05.058Z,2.50
2023-04-26T06:22:33.723Z,2.42
2023-04-26T06:25:01.416Z,3.08
2023-04-26T06:27:35.872Z,2.85
2023-04-26T06:30:02.346Z,2.67
2023-04-26T06:32:31.993Z,2.55
2023-04-26T06:35:00.621Z,2.40
2023-04-26T06:37:28.650Z,3.08
2023-04-26T06:39:55.489Z,2.83
2023-04-26T06:42:23.954Z,2.60
2023-04-26T06:45:19.692Z,2.65
2023-04-26T06:50:46.531Z,2.38
2023-04-26T06:53:15.243Z,2.63
2023-04-26T06:55:41.658Z,3.50
2023-04-26T06:58:10.608Z,2.90
2023-04-26T07:00:37.102Z,2.75
2023-04-26T07:03:07.420Z,2.65
2023-04-26T07:05:34.846Z,3.22
2023-04-26T07:08:05.953Z,2.88
2023-04-26T07:10:34.337Z,2.45
2023-04-26T07:13:01.426Z,2.40
2023-04-26T07:15:29.953Z,2.50
2023-04-26T07:17:57.002Z,2.40
2023-04-26T07:20:24.207Z,2.47
2023-04-26T07:25:47.038Z,2.13
2023-04-26T07:28:15.194Z,2.47
2023-04-26T07:30:42.615Z,2.53
2023-04-26T07:33:13.897Z,2.15
2023-04-26T07:35:40.472Z,2.42
2023-04-26T07:38:15.738Z,2.60
2023-04-26T07:40:43.257Z,2.03
2023-04-26T07:43:12.851Z,1.98
2023-04-26T07:45:40.045Z,1.83
2023-04-26T07:48:08.407Z,2.20
2023-04-26T07:50:34.875Z,1.98
2023-04-26T07:53:07.285Z,2.03
2023-04-26T07:55:40.707Z,2.00
2023-04-26T07:58:08.210Z,1.90
2023-04-26T08:00:43.430Z,2.00
2023-04-26T08:03:35.312Z,1.70
2023-04-26T08:06:03.507Z,1.73
2023-04-26T08:08:33.318Z,1.90
2023-04-26T08:11:01.930Z,2.05
2023-04-26T08:13:29.726Z,1.98
2023-04-26T08:15:56.273Z,1.63
2023-04-26T08:18:23.793Z,1.70
2023-04-26T08:20:52.198Z,1.85
2023-04-26T08:23:19.859Z,1.65
2023-04-26T08:28:42.480Z,1.73
2023-04-26T08:31:10.211Z,1.48
2023-04-26T08:33:36.949Z,2.15
2023-04-26T08:36:09.692Z,1.73
2023-04-26T08:41:14.394Z,1.52
2023-04-26T08:43:41.997Z,1.50
2023-04-26T08:46:12.528Z,1.85
2023-04-26T08:48:53.223Z,1.95
2023-04-26T08:51:27.347Z,2.50
2023-04-26T08:53:58.187Z,1.40
2023-04-26T08:56:25.479Z,2.38
2023-04-26T08:58:52.126Z,1.88
2023-04-26T09:01:21.389Z,1.77
2023-04-26T09:03:48.906Z,1.48
2023-04-26T09:06:16.310Z,1.83
2023-04-26T09:08:43.053Z,1.67
2023-04-26T09:11:09.691Z,1.67
2023-04-26T09:13:36.222Z,1.38
2023-04-26T09:16:05.026Z,1.70
2023-04-26T09:18:33.964Z,1.58
2023-04-26T09:21:05.366Z,1.75
2023-04-26T09:23:32.816Z,1.63
2023-04-26T09:26:20.448Z,2.08
2023-04-26T09:28:47.555Z,1.70
2023-04-26T09:31:33.483Z,2.30
2023-04-26T09:34:00.324Z,1.40
2023-04-26T09:36:27.602Z,1.40
2023-04-26T09:38:54.324Z,1.73
2023-04-26T09:41:20.908Z,1.42
2023-04-26T09:43:48.862Z,1.73
2023-04-26T09:46:22.906Z,1.50
2023-04-26T09:49:00.853Z,1.75
2023-04-26T09:51:28.872Z,2.42
2023-04-26T09:53:56.694Z,1.40
2023-04-26T09:56:23.570Z,1.45
2023-04-26T09:58:53.468Z,1.58
2023-04-26T10:01:20.764Z,2.17
2023-04-26T10:03:55.742Z,1.85
2023-04-26T10:06:24.693Z,1.60
2023-04-26T10:08:51.435Z,1.65
2023-04-26T10:11:19.291Z,1.45
2023-04-26T10:13:45.820Z,1.52
2023-04-26T10:16:12.362Z,1.60
2023-04-26T10:18:39.489Z,1.52
2023-04-26T10:21:13.099Z,1.48
2023-04-26T10:23:41.602Z,1.30
2023-04-26T10:26:28.050Z,1.50
2023-04-26T10:29:01.489Z,1.58
2023-04-26T10:31:48.914Z,1.40
2023-04-26T10:34:20.415Z,1.80
2023-04-26T10:37:10.993Z,1.80
2023-04-26T10:39:39.164Z,1.38
2023-04-26T10:42:25.431Z,1.50
2023-04-26T10:44:53.661Z,1.50
2023-04-26T10:47:26.171Z,1.65
2023-04-26T10:49:53.376Z,1.58
2023-04-26T10:52:20.521Z,1.90
2023-04-26T10:54:50.100Z,1.50
2023-04-26T10:57:17.018Z,1.13
2023-04-26T11:00:02.718Z,1.38
2023-04-26T11:02:52.468Z,1.70
2023-04-26T11:05:39.406Z,1.50
2023-04-26T11:08:17.852Z,1.63
2023-04-26T11:11:11.122Z,1.25
2023-04-26T11:13:40.724Z,1.20
2023-04-26T11:16:07.357Z,1.83
2023-04-26T11:18:35.629Z,1.60
2023-04-26T11:21:02.509Z,1.60
2023-04-26T11:23:30.293Z,1.42
2023-04-26T11:26:00.344Z,1.38
2023-04-26T11:28:27.613Z,1.75
2023-04-26T11:30:54.582Z,1.80
2023-04-26T11:33:24.774Z,2.13
2023-04-26T11:35:52.145Z,1.50
2023-04-26T11:38:22.090Z,1.70
2023-04-26T11:40:55.740Z,1.55
2023-04-26T11:43:22.553Z,2.58
2023-04-26T11:45:49.026Z,1.40
2023-04-26T11:48:16.982Z,1.70
2023-04-26T11:50:44.123Z,1.60
2023-04-26T11:53:29.193Z,1.83
2023-04-26T11:55:55.850Z,1.40
2023-04-26T11:58:22.554Z,1.77
2023-04-26T12:01:16.372Z,1.70
2023-04-26T12:03:43.078Z,1.52
2023-04-26T12:06:10.101Z,1.50
2023-04-26T12:08:37.557Z,1.70
2023-04-26T12:11:04.755Z,1.90
2023-04-26T12:13:33.439Z,1.50
2023-04-26T12:16:00.003Z,1.70
2023-04-26T12:18:32.947Z,1.25
2023-04-26T12:20:59.814Z,1.70
2023-04-26T12:23:27.491Z,1.98
2023-04-26T12:25:55.785Z,1.63
2023-04-26T12:28:23.013Z,1.52
2023-04-26T12:30:51.212Z,1.40
2023-04-26T12:33:22.753Z,1.45
2023-04-26T12:35:50.373Z,1.48
2023-04-26T12:38:17.649Z,1.35
2023-04-26T12:40:45.290Z,1.63
2023-04-26T12:43:13.098Z,1.38
2023-04-26T12:45:39.623Z,2.15
2023-04-26T12:48:06.889Z,1.23
2023-04-26T12:50:37.046Z,1.48
2023-04-26T12:53:03.540Z,1.52
2023-04-26T12:55:32.562Z,1.90
2023-04-26T12:58:00.512Z,1.60
2023-04-26T13:00:27.170Z,2.05
2023-04-26T13:02:53.990Z,1.90
2023-04-26T13:05:21.270Z,1.77
2023-04-26T13:07:48.230Z,2.03
2023-04-26T13:10:14.772Z,1.80
2023-04-26T13:12:42.104Z,1.50
2023-04-26T13:15:09.883Z,1.67
2023-04-26T13:17:37.634Z,2.08
2023-04-26T13:20:05.976Z,1.73
2023-04-26T13:22:33.240Z,1.73
2023-04-26T13:24:59.649Z,2.03
2023-04-26T13:27:28.412Z,1.63
2023-04-26T13:29:57.157Z,1.92
2023-04-26T13:32:41.951Z,1.90
2023-04-26T13:35:10.408Z,1.90
2023-04-26T13:37:38.292Z,1.77
2023-04-26T13:40:05.733Z,2.10
2023-04-26T13:42:33.173Z,1.90
2023-04-26T13:45:01.864Z,2.10
2023-04-26T13:47:28.924Z,2.00
2023-04-26T13:49:55.494Z,1.80
2023-04-26T13:52:22.299Z,1.60
2023-04-26T13:54:48.953Z,1.83
2023-04-26T13:57:15.981Z,1.52
2023-04-26T13:59:42.495Z,2.35
2023-04-26T14:02:09.333Z,1.92
2023-04-26T14:04:36.635Z,2.22
2023-04-26T14:07:04.721Z,1.60
2023-04-26T14:09:31.525Z,2.10
2023-04-26T14:12:07.980Z,1.77
2023-04-26T14:14:37.482Z,1.80
2023-04-26T14:17:04.179Z,2.10
2023-04-26T14:19:31.355Z,1.85
2023-04-26T14:21:58.502Z,1.40
2023-04-26T14:24:25.080Z,2.10
2023-04-26T14:26:52.105Z,1.80
2023-04-26T14:29:18.527Z,1.50
2023-04-26T14:31:45.550Z,1.60
2023-04-26T14:34:13.517Z,1.50
2023-04-26T14:36:41.214Z,1.80
2023-04-26T14:39:08.183Z,1.67
2023-04-26T14:41:35.437Z,2.03
2023-04-26T14:44:01.978Z,1.70
2023-04-26T14:46:28.717Z,1.90
2023-04-26T14:48:55.624Z,1.58
2023-04-26T14:51:22.184Z,2.08
2023-04-26T14:53:48.697Z,1.95
2023-04-26T14:56:15.371Z,1.50
2023-04-26T14:58:42.133Z,1.65
2023-04-26T15:01:09.340Z,1.70
2023-04-26T15:03:36.226Z,2.00
2023-04-26T15:06:03.346Z,2.10
2023-04-26T15:08:30.061Z,1.80
2023-04-26T15:10:56.718Z,1.77
2023-04-26T15:13:23.259Z,1.90
2023-04-26T15:15:49.725Z,2.08
2023-04-26T15:18:16.569Z,1.95
2023-04-26T15:20:43.431Z,1.58
2023-04-26T15:23:11.856Z,1.90
2023-04-26T15:25:42.138Z,1.83
2023-04-26T15:28:35.475Z,2.78
2023-04-26T15:31:05.026Z,2.20
2023-04-26T15:33:32.385Z,2.38
2023-04-26T15:36:03.925Z,2.28
2023-04-26T15:38:31.570Z,2.38
2023-04-26T15:40:58.073Z,2.65
2023-04-26T15:43:33.502Z,3.20
2023-04-26T15:46:25.832Z,1.90
2023-04-26T15:49:00.615Z,2.47
2023-04-26T15:51:29.995Z,1.90
2023-04-26T15:53:58.095Z,2.47
2023-04-26T15:56:28.809Z,2.05
2023-04-26T15:58:57.384Z,2.42
2023-04-26T16:01:26.106Z,2.47
2023-04-26T16:03:55.827Z,2.30
2023-04-26T16:06:52.132Z,2.03
2023-04-26T16:09:25.944Z,2.97
2023-04-26T16:11:54.222Z,2.10
2023-04-26T16:14:20.996Z,1.58
2023-04-26T16:16:47.694Z,1.90
2023-04-26T16:19:14.187Z,2.17
2023-04-26T16:21:40.981Z,1.90
2023-04-26T16:24:09.428Z,2.13
2023-04-26T16:26:36.216Z,1.90
2023-04-26T16:29:04.327Z,1.92
2023-04-26T16:31:32.129Z,2.00
2023-04-26T16:33:58.929Z,2.20
2023-04-26T16:36:25.658Z,2.20
2023-04-26T16:38:52.456Z,1.83
2023-04-26T16:41:18.919Z,2.05
2023-04-26T16:43:46.007Z,1.70
2023-04-26T16:46:15.599Z,1.90
2023-04-26T16:48:43.717Z,2.00
2023-04-26T16:51:10.576Z,2.17
2023-04-26T16:53:40.731Z,1.90
2023-04-26T16:56:32.447Z,1.83
2023-04-26T16:59:25.514Z,1.88
2023-04-26T17:01:54.643Z,2.33
2023-04-26T17:04:21.330Z,2.30
2023-04-26T17:06:49.595Z,2.05
2023-04-26T17:09:18.697Z,3.53
2023-04-26T17:11:46.871Z,2.65
2023-04-26T17:14:14.721Z,2.70
2023-04-26T17:16:47.272Z,2.30
2023-04-26T17:19:14.488Z,2.40
2023-04-26T17:21:44.513Z,2.30
2023-04-26T17:24:11.945Z,2.15
2023-04-26T17:26:39.560Z,2.60
2023-04-26T17:29:06.052Z,1.90
2023-04-26T17:31:40.044Z,2.00
2023-04-26T17:34:08.143Z,2.10
2023-04-26T17:36:34.660Z,2.40
2023-04-26T17:39:04.328Z,2.03
2023-04-26T17:41:32.816Z,2.45
2023-04-26T17:43:59.234Z,2.00
2023-04-26T17:46:29.519Z,2.35
2023-04-26T17:48:56.336Z,2.22
2023-04-26T17:51:26.689Z,2.15
2023-04-26T17:53:53.115Z,2.00
2023-04-26T17:56:22.803Z,1.80
2023-04-26T17:58:49.342Z,2.35
2023-04-26T18:01:21.217Z,2.28
2023-04-26T18:07:07.231Z,2.42
2023-04-26T18:09:36.550Z,1.80
2023-04-26T18:12:04.198Z,2.10
2023-04-26T18:14:32.900Z,2.63
2023-04-26T18:17:00.986Z,2.50
2023-04-26T18:19:27.458Z,3.10
2023-04-26T18:21:58.447Z,3.28
2023-04-26T18:24:31.665Z,3.28
2023-04-26T18:26:58.075Z,3.63
2023-04-26T18:29:28.929Z,3.58
2023-04-26T18:31:55.674Z,3.10
2023-04-26T18:34:24.555Z,3.35
2023-04-26T18:36:51.531Z,2.97
2023-04-26T18:39:25.596Z,3.20
2023-04-26T18:41:59.958Z,3.08
2023-04-26T18:44:31.583Z,3.60
2023-04-26T18:46:59.983Z,4.80
2023-04-26T18:49:31.076Z,4.03
2023-04-26T18:54:52.039Z,4.47
2023-04-26T18:57:22.196Z,4.57
2023-04-26T18:59:49.904Z,3.85
2023-04-26T19:02:19.213Z,3.83
2023-04-26T19:04:50.451Z,3.97
2023-04-26T19:07:18.912Z,3.78
2023-04-26T19:09:54.207Z,3.45
2023-04-26T19:12:27.312Z,3.65
2023-04-26T19:14:54.255Z,3.20
2023-04-26T19:17:22.182Z,3.30
2023-04-26T19:19:52.215Z,2.90
2023-04-26T19:22:18.841Z,2.80
2023-04-26T19:24:49.220Z,2.90
2023-04-26T19:27:15.852Z,3.30
2023-04-26T19:29:42.570Z,3.03
2023-04-26T19:32:09.315Z,2.53
2023-04-26T19:34:38.831Z,2.95
2023-04-26T19:37:05.357Z,3.33
2023-04-26T19:39:31.914Z,3.72
2023-04-26T19:42:01.327Z,4.95
2023-04-26T19:44:28.105Z,4.10
2023-04-26T19:46:54.687Z,4.13
2023-04-26T19:49:21.919Z,3.30
2023-04-26T19:51:48.522Z,3.78
2023-04-26T19:54:16.874Z,3.42
2023-04-26T19:56:43.347Z,3.55
2023-04-26T19:59:10.250Z,3.72
2023-04-26T20:01:42.129Z,3.67
2023-04-26T20:04:13.006Z,3.45
2023-04-26T20:06:39.566Z,3.45
2023-04-26T20:09:11.845Z,3.03
2023-04-26T20:11:42.940Z,3.17
2023-04-26T20:14:09.416Z,2.97
2023-04-26T20:16:40.223Z,3.28
2023-04-26T20:19:06.981Z,3.25
2023-04-26T20:21:36.454Z,3.45
2023-04-26T20:24:03.126Z,3.58
2023-04-26T20:26:31.803Z,3.85
2023-04-26T20:28:58.510Z,4.35
2023-04-26T20:31:27.130Z,3.78
2023-04-26T20:33:56.018Z,3.63
2023-04-26T20:36:22.551Z,3.13
2023-04-26T20:38:49.093Z,3.95
2023-04-26T20:41:15.662Z,3.15
2023-04-26T20:43:42.141Z,3.78
2023-04-26T20:46:08.842Z,3.85
2023-04-26T20:48:35.558Z,3.58
2023-04-26T20:51:03.273Z,3.30
2023-04-26T20:53:29.758Z,3.67
2023-04-26T20:55:56.871Z,3.90
2023-04-26T20:58:24.200Z,3.50
2023-04-26T21:00:51.824Z,3.50
2023-04-26T21:03:21.355Z,3.50
2023-04-26T21:05:48.161Z,3.53
2023-04-26T21:08:16.484Z,3.67
2023-04-26T21:10:43.033Z,3.22
2023-04-26T21:13:10.684Z,2.45
2023-04-26T21:15:38.924Z,3.47
2023-04-26T21:18:07.004Z,3.28
2023-04-26T21:20:33.827Z,2.92
2023-04-26T21:23:00.507Z,2.80
2023-04-26T21:25:27.851Z,2.83
2023-04-26T21:27:54.764Z,3.17
2023-04-26T21:30:21.503Z,3.17
2023-04-26T21:32:48.090Z,3.40
2023-04-26T21:35:14.761Z,3.63
2023-04-26T21:37:41.320Z,4.20
2023-04-26T21:40:08.382Z,3.97
2023-04-26T21:42:35.118Z,4.03
2023-04-26T21:45:02.014Z,3.55
2023-04-26T21:47:28.744Z,4.85
2023-04-26T21:49:55.946Z,4.35
2023-04-26T21:52:22.639Z,4.18
2023-04-26T21:54:50.182Z,4.47
2023-04-26T21:57:20.422Z,4.70
2023-04-26T21:59:46.992Z,4.38
2023-04-26T22:02:13.990Z,4.50
2023-04-26T22:04:40.904Z,4.50
2023-04-26T22:07:07.695Z,4.28
2023-04-26T22:09:34.140Z,4.05
2023-04-26T22:12:02.513Z,4.25
2023-04-26T22:14:29.081Z,4.15
2023-04-26T22:16:55.846Z,3.92
2023-04-26T22:19:26.658Z,3.67
2023-04-26T22:21:56.003Z,3.28
2023-04-26T22:24:23.265Z,3.60
2023-04-26T22:26:49.830Z,3.25
2023-04-26T22:29:16.326Z,3.95
2023-04-26T22:31:44.255Z,3.17
2023-04-26T22:34:10.969Z,3.25
2023-04-26T22:36:39.028Z,2.75
2023-04-26T22:39:05.777Z,3.00
2023-04-26T22:41:32.396Z,3.67
2023-04-26T22:43:58.814Z,3.90
2023-04-26T22:46:25.781Z,3.60
2023-04-26T22:48:52.360Z,3.67
2023-04-26T22:51:18.974Z,3.80
2023-04-26T22:53:45.918Z,4.68
2023-04-26T22:56:12.624Z,3.90
2023-04-26T22:58:39.313Z,3.90
2023-04-26T23:01:06.271Z,3.00
2023-04-26T23:03:38.287Z,3.58
2023-04-26T23:06:05.311Z,3.08
2023-04-26T23:08:32.057Z,3.05
2023-04-26T23:10:59.383Z,2.97
2023-04-26T23:13:26.387Z,2.97
2023-04-26T23:15:53.047Z,3.17
2023-04-26T23:18:22.543Z,2.92
2023-04-26T23:20:49.897Z,2.67
2023-04-26T23:23:16.435Z,3.53
2023-04-26T23:25:43.130Z,3.13
2023-04-26T23:28:09.926Z,3.03
2023-04-26T23:30:36.563Z,3.05
2023-04-26T23:33:03.509Z,4.32
2023-04-26T23:35:30.064Z,3.50
2023-04-26T23:37:56.745Z,3.25
2023-04-26T23:40:23.633Z,3.45
2023-04-26T23:42:50.177Z,3.35
2023-04-26T23:45:18.715Z,3.30
2023-04-26T23:47:45.583Z,3.35
2023-04-26T23:50:12.400Z,2.95
2023-04-26T23:52:44.959Z,3.58
2023-04-26T23:55:12.102Z,3.63
2023-04-26T23:57:44.574Z,3.33
